sensor_id;sensor_type;location;lat;lon;timestamp;P1;durP1;ratioP1;P2;durP2;ratioP2
19414;SDS011;9843;48.882;12.592;2022-09-04T00:02:35;5.90;;;3.53;;
19414;SDS011;9843;48.882;12.592;2022-09-04T00:05:24;5.43;;;3.70;;
19414;SDS011;9843;48.882;12.592;2022-09-04T00:10:58;4.40;;;3.60;;
19414;SDS011;9843;48.882;12.592;2022-09-04T00:13:30;4.07;;;3.77;;
19414;SDS011;9843;48.882;12.592;2022-09-04T00:16:03;4.10;;;3.70;;
19414;SDS011;9843;48.882;12.592;2022-09-04T00:18:34;3.67;;;3.37;;
19414;SDS011;9843;48.882;12.592;2022-09-04T00:21:08;3.77;;;3.47;;
19414;SDS011;9843;48.882;12.592;2022-09-04T00:23:42;4.30;;;3.90;;
19414;SDS011;9843;48.882;12.592;2022-09-04T00:26:16;3.27;;;3.07;;
19414;SDS011;9843;48.882;12.592;2022-09-04T00:28:49;3.60;;;3.30;;
19414;SDS011;9843;48.882;12.592;2022-09-04T00:31:22;3.93;;;3.63;;
19414;SDS011;9843;48.882;12.592;2022-09-04T00:33:58;4.20;;;3.90;;
19414;SDS011;9843;48.882;12.592;2022-09-04T00:36:36;5.03;;;4.53;;
19414;SDS011;9843;48.882;12.592;2022-09-04T00:39:07;5.17;;;3.70;;
19414;SDS011;9843;48.882;12.592;2022-09-04T00:41:40;5.17;;;4.70;;
19414;SDS011;9843;48.882;12.592;2022-09-04T00:44:25;2.97;;;2.67;;
19414;SDS011;9843;48.882;12.592;2022-09-04T00:47:28;5.07;;;4.57;;
19414;SDS011;9843;48.882;12.592;2022-09-04T00:53:07;6.07;;;3.87;;
19414;SDS011;9843;48.882;12.592;2022-09-04T00:56:00;3.53;;;3.23;;
19414;SDS011;9843;48.882;12.592;2022-09-04T00:58:51;5.20;;;3.57;;
19414;SDS011;9843;48.882;12.592;2022-09-04T01:01:28;3.40;;;3.10;;
19414;SDS011;9843;48.882;12.592;2022-09-04T01:03:59;4.53;;;3.70;;
19414;SDS011;9843;48.882;12.592;2022-09-04T01:06:41;6.43;;;3.87;;
19414;SDS011;9843;48.882;12.592;2022-09-04T01:12:10;4.13;;;3.73;;
19414;SDS011;9843;48.882;12.592;2022-09-04T01:14:49;5.87;;;3.50;;
19414;SDS011;9843;48.882;12.592;2022-09-04T01:17:23;4.47;;;3.13;;
19414;SDS011;9843;48.882;12.592;2022-09-04T01:19:55;3.97;;;3.57;;
19414;SDS011;9843;48.882;12.592;2022-09-04T01:25:31;6.20;;;3.80;;
19414;SDS011;9843;48.882;12.592;2022-09-04T01:28:22;3.53;;;3.23;;
19414;SDS011;9843;48.882;12.592;2022-09-04T01:30:56;4.13;;;3.73;;
19414;SDS011;9843;48.882;12.592;2022-09-04T01:33:30;12.03;;;3.77;;
19414;SDS011;9843;48.882;12.592;2022-09-04T01:36:04;4.03;;;3.73;;
19414;SDS011;9843;48.882;12.592;2022-09-04T01:38:39;3.50;;;3.30;;
19414;SDS011;9843;48.882;12.592;2022-09-04T01:41:14;3.80;;;3.50;;
19414;SDS011;9843;48.882;12.592;2022-09-04T01:43:46;4.23;;;3.83;;
19414;SDS011;9843;48.882;12.592;2022-09-04T01:49:04;4.47;;;3.63;;
19414;SDS011;9843;48.882;12.592;2022-09-04T01:51:37;3.47;;;3.17;;
19414;SDS011;9843;48.882;12.592;2022-09-04T01:54:11;3.03;;;2.77;;
19414;SDS011;9843;48.882;12.592;2022-09-04T01:56:50;3.13;;;2.93;;
19414;SDS011;9843;48.882;12.592;2022-09-04T01:59:27;3.60;;;3.30;;
19414;SDS011;9843;48.882;12.592;2022-09-04T02:01:57;3.87;;;3.57;;
19414;SDS011;9843;48.882;12.592;2022-09-04T02:04:30;3.67;;;3.37;;
19414;SDS011;9843;48.882;12.592;2022-09-04T02:07:07;4.80;;;3.93;;
19414;SDS011;9843;48.882;12.592;2022-09-04T02:09:47;3.87;;;3.57;;
19414;SDS011;9843;48.882;12.592;2022-09-04T02:12:22;3.30;;;3.10;;
19414;SDS011;9843;48.882;12.592;2022-09-04T02:15:01;3.90;;;3.60;;
19414;SDS011;9843;48.882;12.592;2022-09-04T02:17:36;4.50;;;4.10;;
19414;SDS011;9843;48.882;12.592;2022-09-04T02:20:11;3.40;;;3.17;;
19414;SDS011;9843;48.882;12.592;2022-09-04T02:22:48;4.50;;;4.10;;
19414;SDS011;9843;48.882;12.592;2022-09-04T02:25:29;4.03;;;3.10;;
19414;SDS011;9843;48.882;12.592;2022-09-04T02:28:04;4.30;;;3.07;;
19414;SDS011;9843;48.882;12.592;2022-09-04T02:30:44;3.87;;;3.53;;
19414;SDS011;9843;48.882;12.592;2022-09-04T02:33:19;5.33;;;4.03;;
19414;SDS011;9843;48.882;12.592;2022-09-04T02:35:56;3.30;;;3.10;;
19414;SDS011;9843;48.882;12.592;2022-09-04T02:38:28;4.70;;;4.00;;
19414;SDS011;9843;48.882;12.592;2022-09-04T02:41:04;4.20;;;3.30;;
19414;SDS011;9843;48.882;12.592;2022-09-04T02:43:47;3.70;;;3.43;;
19414;SDS011;9843;48.882;12.592;2022-09-04T02:46:23;4.17;;;3.87;;
19414;SDS011;9843;48.882;12.592;2022-09-04T02:48:58;4.47;;;4.03;;
19414;SDS011;9843;48.882;12.592;2022-09-04T02:51:42;4.70;;;4.23;;
19414;SDS011;9843;48.882;12.592;2022-09-04T02:54:19;5.47;;;4.97;;
19414;SDS011;9843;48.882;12.592;2022-09-04T02:56:59;6.40;;;4.50;;
19414;SDS011;9843;48.882;12.592;2022-09-04T02:59:36;4.00;;;3.67;;
19414;SDS011;9843;48.882;12.592;2022-09-04T03:02:14;3.83;;;3.53;;
19414;SDS011;9843;48.882;12.592;2022-09-04T03:04:48;4.70;;;4.30;;
19414;SDS011;9843;48.882;12.592;2022-09-04T03:07:20;5.80;;;3.83;;
19414;SDS011;9843;48.882;12.592;2022-09-04T03:09:52;4.63;;;4.17;;
19414;SDS011;9843;48.882;12.592;2022-09-04T03:12:26;5.43;;;4.87;;
19414;SDS011;9843;48.882;12.592;2022-09-04T03:15:02;4.97;;;4.30;;
19414;SDS011;9843;48.882;12.592;2022-09-04T03:17:35;5.23;;;4.83;;
19414;SDS011;9843;48.882;12.592;2022-09-04T03:20:12;4.47;;;4.17;;
19414;SDS011;9843;48.882;12.592;2022-09-04T03:22:46;6.27;;;5.23;;
19414;SDS011;9843;48.882;12.592;2022-09-04T03:28:14;5.57;;;4.67;;
19414;SDS011;9843;48.882;12.592;2022-09-04T03:30:46;4.10;;;3.80;;
19414;SDS011;9843;48.882;12.592;2022-09-04T03:33:15;4.23;;;3.87;;
19414;SDS011;9843;48.882;12.592;2022-09-04T03:35:48;4.20;;;3.50;;
19414;SDS011;9843;48.882;12.592;2022-09-04T03:38:20;4.50;;;4.10;;
19414;SDS011;9843;48.882;12.592;2022-09-04T03:40:56;5.83;;;5.33;;
19414;SDS011;9843;48.882;12.592;2022-09-04T03:43:36;4.63;;;4.30;;
19414;SDS011;9843;48.882;12.592;2022-09-04T03:46:27;5.20;;;4.80;;
19414;SDS011;9843;48.882;12.592;2022-09-04T03:49:08;6.43;;;5.83;;
19414;SDS011;9843;48.882;12.592;2022-09-04T03:51:44;4.70;;;4.30;;
19414;SDS011;9843;48.882;12.592;2022-09-04T03:54:24;8.43;;;4.63;;
19414;SDS011;9843;48.882;12.592;2022-09-04T03:57:07;8.47;;;4.40;;
19414;SDS011;9843;48.882;12.592;2022-09-04T03:59:49;5.03;;;4.63;;
19414;SDS011;9843;48.882;12.592;2022-09-04T04:02:27;5.57;;;4.97;;
19414;SDS011;9843;48.882;12.592;2022-09-04T04:05:07;7.03;;;5.07;;
19414;SDS011;9843;48.882;12.592;2022-09-04T04:08:03;5.93;;;5.47;;
19414;SDS011;9843;48.882;12.592;2022-09-04T04:10:43;5.47;;;5.07;;
19414;SDS011;9843;48.882;12.592;2022-09-04T04:13:24;6.23;;;4.90;;
19414;SDS011;9843;48.882;12.592;2022-09-04T04:16:10;7.30;;;5.47;;
19414;SDS011;9843;48.882;12.592;2022-09-04T04:19:05;6.40;;;5.87;;
19414;SDS011;9843;48.882;12.592;2022-09-04T04:22:03;6.27;;;5.77;;
19414;SDS011;9843;48.882;12.592;2022-09-04T04:24:45;9.60;;;6.37;;
19414;SDS011;9843;48.882;12.592;2022-09-04T04:27:27;6.00;;;5.40;;
19414;SDS011;9843;48.882;12.592;2022-09-04T04:30:12;8.63;;;7.07;;
19414;SDS011;9843;48.882;12.592;2022-09-04T04:32:45;6.60;;;5.93;;
19414;SDS011;9843;48.882;12.592;2022-09-04T04:35:28;7.47;;;6.73;;
19414;SDS011;9843;48.882;12.592;2022-09-04T04:38:03;7.77;;;6.50;;
19414;SDS011;9843;48.882;12.592;2022-09-04T04:40:52;7.90;;;7.10;;
19414;SDS011;9843;48.882;12.592;2022-09-04T04:43:28;10.57;;;6.70;;
19414;SDS011;9843;48.882;12.592;2022-09-04T04:46:02;8.53;;;7.73;;
19414;SDS011;9843;48.882;12.592;2022-09-04T04:48:41;11.17;;;9.57;;
19414;SDS011;9843;48.882;12.592;2022-09-04T04:51:24;9.07;;;8.17;;
19414;SDS011;9843;48.882;12.592;2022-09-04T04:54:08;21.70;;;10.23;;
19414;SDS011;9843;48.882;12.592;2022-09-04T04:56:49;11.00;;;9.47;;
19414;SDS011;9843;48.882;12.592;2022-09-04T04:59:22;37.67;;;11.53;;
19414;SDS011;9843;48.882;12.592;2022-09-04T05:01:56;13.57;;;10.87;;
19414;SDS011;9843;48.882;12.592;2022-09-04T05:04:28;12.47;;;11.00;;
19414;SDS011;9843;48.882;12.592;2022-09-04T05:07:05;18.27;;;10.50;;
19414;SDS011;9843;48.882;12.592;2022-09-04T05:09:38;11.20;;;10.03;;
19414;SDS011;9843;48.882;12.592;2022-09-04T05:12:13;54.27;;;12.40;;
19414;SDS011;9843;48.882;12.592;2022-09-04T05:14:51;10.93;;;9.73;;
19414;SDS011;9843;48.882;12.592;2022-09-04T05:17:27;12.13;;;10.07;;
19414;SDS011;9843;48.882;12.592;2022-09-04T05:22:57;18.30;;;13.37;;
19414;SDS011;9843;48.882;12.592;2022-09-04T05:25:32;13.93;;;9.77;;
19414;SDS011;9843;48.882;12.592;2022-09-04T05:28:04;13.67;;;10.97;;
19414;SDS011;9843;48.882;12.592;2022-09-04T05:30:40;13.83;;;10.90;;
19414;SDS011;9843;48.882;12.592;2022-09-04T05:33:14;14.53;;;10.73;;
19414;SDS011;9843;48.882;12.592;2022-09-04T05:35:49;13.00;;;11.33;;
19414;SDS011;9843;48.882;12.592;2022-09-04T05:38:22;12.97;;;10.80;;
19414;SDS011;9843;48.882;12.592;2022-09-04T05:41:05;11.30;;;9.70;;
19414;SDS011;9843;48.882;12.592;2022-09-04T05:46:34;10.27;;;9.33;;
19414;SDS011;9843;48.882;12.592;2022-09-04T05:49:12;10.23;;;9.17;;
19414;SDS011;9843;48.882;12.592;2022-09-04T05:52:01;10.00;;;8.60;;
19414;SDS011;9843;48.882;12.592;2022-09-04T05:58:04;10.20;;;9.20;;
19414;SDS011;9843;48.882;12.592;2022-09-04T06:00:42;9.43;;;8.43;;
19414;SDS011;9843;48.882;12.592;2022-09-04T06:03:26;11.67;;;8.17;;
19414;SDS011;9843;48.882;12.592;2022-09-04T06:06:07;12.43;;;8.53;;
19414;SDS011;9843;48.882;12.592;2022-09-04T06:08:44;8.37;;;7.53;;
19414;SDS011;9843;48.882;12.592;2022-09-04T06:11:48;11.20;;;7.70;;
19414;SDS011;9843;48.882;12.592;2022-09-04T06:14:46;8.20;;;7.03;;
19414;SDS011;9843;48.882;12.592;2022-09-04T06:17:30;8.80;;;7.77;;
19414;SDS011;9843;48.882;12.592;2022-09-04T06:20:15;8.93;;;7.13;;
19414;SDS011;9843;48.882;12.592;2022-09-04T06:22:57;6.77;;;6.07;;
19414;SDS011;9843;48.882;12.592;2022-09-04T06:26:05;7.87;;;7.03;;
19414;SDS011;9843;48.882;12.592;2022-09-04T06:29:03;6.80;;;5.50;;
19414;SDS011;9843;48.882;12.592;2022-09-04T06:34:44;7.27;;;6.43;;
19414;SDS011;9843;48.882;12.592;2022-09-04T06:37:32;8.40;;;5.73;;
19414;SDS011;9843;48.882;12.592;2022-09-04T06:40:07;6.57;;;5.47;;
19414;SDS011;9843;48.882;12.592;2022-09-04T06:42:50;5.07;;;4.67;;
19414;SDS011;9843;48.882;12.592;2022-09-04T06:45:25;6.40;;;5.73;;
19414;SDS011;9843;48.882;12.592;2022-09-04T06:48:04;6.07;;;5.57;;
19414;SDS011;9843;48.882;12.592;2022-09-04T06:50:41;5.53;;;5.03;;
19414;SDS011;9843;48.882;12.592;2022-09-04T06:53:20;6.20;;;4.93;;
19414;SDS011;9843;48.882;12.592;2022-09-04T06:56:02;6.23;;;5.63;;
19414;SDS011;9843;48.882;12.592;2022-09-04T07:01:54;5.17;;;4.67;;
19414;SDS011;9843;48.882;12.592;2022-09-04T07:04:35;7.53;;;5.63;;
19414;SDS011;9843;48.882;12.592;2022-09-04T07:07:12;6.23;;;5.63;;
19414;SDS011;9843;48.882;12.592;2022-09-04T07:09:46;5.67;;;5.17;;
19414;SDS011;9843;48.882;12.592;2022-09-04T07:15:28;7.80;;;5.03;;
19414;SDS011;9843;48.882;12.592;2022-09-04T07:18:11;6.93;;;6.23;;
19414;SDS011;9843;48.882;12.592;2022-09-04T07:20:58;5.20;;;4.70;;
19414;SDS011;9843;48.882;12.592;2022-09-04T07:23:33;8.67;;;5.00;;
19414;SDS011;9843;48.882;12.592;2022-09-04T07:26:12;4.83;;;3.27;;
19414;SDS011;9843;48.882;12.592;2022-09-04T07:28:50;4.63;;;4.23;;
19414;SDS011;9843;48.882;12.592;2022-09-04T07:31:25;9.40;;;4.73;;
19414;SDS011;9843;48.882;12.592;2022-09-04T07:33:57;5.90;;;4.93;;
19414;SDS011;9843;48.882;12.592;2022-09-04T07:36:32;4.43;;;4.03;;
19414;SDS011;9843;48.882;12.592;2022-09-04T07:39:06;4.57;;;4.17;;
19414;SDS011;9843;48.882;12.592;2022-09-04T07:41:45;4.47;;;3.97;;
19414;SDS011;9843;48.882;12.592;2022-09-04T07:44:19;6.03;;;3.70;;
19414;SDS011;9843;48.882;12.592;2022-09-04T07:46:54;7.13;;;4.50;;
19414;SDS011;9843;48.882;12.592;2022-09-04T07:49:30;4.37;;;3.97;;
19414;SDS011;9843;48.882;12.592;2022-09-04T07:52:04;4.60;;;4.17;;
19414;SDS011;9843;48.882;12.592;2022-09-04T07:54:39;4.57;;;3.90;;
19414;SDS011;9843;48.882;12.592;2022-09-04T07:57:34;3.77;;;3.23;;
19414;SDS011;9843;48.882;12.592;2022-09-04T08:00:13;5.87;;;3.97;;
19414;SDS011;9843;48.882;12.592;2022-09-04T08:05:46;7.93;;;5.77;;
19414;SDS011;9843;48.882;12.592;2022-09-04T08:08:41;8.03;;;6.00;;
19414;SDS011;9843;48.882;12.592;2022-09-04T08:11:25;19.77;;;6.93;;
19414;SDS011;9843;48.882;12.592;2022-09-04T08:17:20;7.57;;;6.70;;
19414;SDS011;9843;48.882;12.592;2022-09-04T08:20:10;13.77;;;7.70;;
19414;SDS011;9843;48.882;12.592;2022-09-04T08:22:46;7.03;;;6.10;;
19414;SDS011;9843;48.882;12.592;2022-09-04T08:25:24;7.70;;;6.65;;
19414;SDS011;9843;48.882;12.592;2022-09-04T08:28:00;6.10;;;5.00;;
19414;SDS011;9843;48.882;12.592;2022-09-04T08:30:46;8.73;;;5.90;;
19414;SDS011;9843;48.882;12.592;2022-09-04T08:36:30;6.90;;;4.78;;
19414;SDS011;9843;48.882;12.592;2022-09-04T08:39:07;6.53;;;5.18;;
19414;SDS011;9843;48.882;12.592;2022-09-04T08:41:57;7.00;;;4.88;;
19414;SDS011;9843;48.882;12.592;2022-09-04T08:48:00;7.38;;;3.53;;
19414;SDS011;9843;48.882;12.592;2022-09-04T08:50:54;5.20;;;3.95;;
19414;SDS011;9843;48.882;12.592;2022-09-04T09:00:08;4.40;;;3.78;;
19414;SDS011;9843;48.882;12.592;2022-09-04T09:06:14;4.63;;;4.18;;
19414;SDS011;9843;48.882;12.592;2022-09-04T09:12:38;6.03;;;4.43;;
19414;SDS011;9843;48.882;12.592;2022-09-04T09:15:38;5.60;;;3.15;;
19414;SDS011;9843;48.882;12.592;2022-09-04T09:18:33;4.55;;;4.15;;
19414;SDS011;9843;48.882;12.592;2022-09-04T09:21:06;5.65;;;4.30;;
19414;SDS011;9843;48.882;12.592;2022-09-04T09:23:38;7.75;;;4.78;;
19414;SDS011;9843;48.882;12.592;2022-09-04T09:29:11;4.85;;;4.30;;
19414;SDS011;9843;48.882;12.592;2022-09-04T09:38:24;4.13;;;3.50;;
19414;SDS011;9843;48.882;12.592;2022-09-04T09:41:30;6.22;;;3.80;;
19414;SDS011;9843;48.882;12.592;2022-09-04T09:44:28;4.93;;;3.83;;
19414;SDS011;9843;48.882;12.592;2022-09-04T09:50:31;6.72;;;2.97;;
19414;SDS011;9843;48.882;12.592;2022-09-04T09:56:35;4.55;;;3.40;;
19414;SDS011;9843;48.882;12.592;2022-09-04T09:59:43;5.60;;;3.40;;
19414;SDS011;9843;48.882;12.592;2022-09-04T10:11:28;5.90;;;3.10;;
19414;SDS011;9843;48.882;12.592;2022-09-04T10:14:31;4.40;;;2.40;;
19414;SDS011;9843;48.882;12.592;2022-09-04T10:17:32;3.90;;;3.03;;
19414;SDS011;9843;48.882;12.592;2022-09-04T10:29:34;2.08;;;1.40;;
19414;SDS011;9843;48.882;12.592;2022-09-04T10:32:15;1.95;;;1.40;;
19414;SDS011;9843;48.882;12.592;2022-09-04T10:34:56;2.10;;;1.90;;
19414;SDS011;9843;48.882;12.592;2022-09-04T10:40:44;1.60;;;1.35;;
19414;SDS011;9843;48.882;12.592;2022-09-04T10:43:28;4.43;;;1.10;;
19414;SDS011;9843;48.882;12.592;2022-09-04T10:46:13;2.42;;;1.17;;
19414;SDS011;9843;48.882;12.592;2022-09-04T10:49:10;2.55;;;1.42;;
19414;SDS011;9843;48.882;12.592;2022-09-04T10:58:01;0.85;;;0.73;;
19414;SDS011;9843;48.882;12.592;2022-09-04T11:00:52;0.93;;;0.80;;
19414;SDS011;9843;48.882;12.592;2022-09-04T11:03:36;1.30;;;1.20;;
19414;SDS011;9843;48.882;12.592;2022-09-04T11:06:39;4.45;;;2.03;;
19414;SDS011;9843;48.882;12.592;2022-09-04T11:09:41;2.28;;;1.17;;
19414;SDS011;9843;48.882;12.592;2022-09-04T11:12:50;2.90;;;1.58;;
19414;SDS011;9843;48.882;12.592;2022-09-04T11:15:46;1.17;;;0.93;;
19414;SDS011;9843;48.882;12.592;2022-09-04T11:18:36;1.02;;;0.90;;
19414;SDS011;9843;48.882;12.592;2022-09-04T11:21:35;1.45;;;1.17;;
19414;SDS011;9843;48.882;12.592;2022-09-04T11:24:38;0.85;;;0.85;;
19414;SDS011;9843;48.882;12.592;2022-09-04T11:30:53;3.90;;;1.27;;
19414;SDS011;9843;48.882;12.592;2022-09-04T11:33:35;3.67;;;0.77;;
19414;SDS011;9843;48.882;12.592;2022-09-04T11:40:01;3.03;;;1.00;;
19414;SDS011;9843;48.882;12.592;2022-09-04T11:42:38;0.40;;;0.40;;
19414;SDS011;9843;48.882;12.592;2022-09-04T11:51:13;0.95;;;0.73;;
19414;SDS011;9843;48.882;12.592;2022-09-04T11:54:08;0.90;;;0.70;;
19414;SDS011;9843;48.882;12.592;2022-09-04T11:57:06;1.10;;;0.50;;
19414;SDS011;9843;48.882;12.592;2022-09-04T12:15:00;1.13;;;0.20;;
19414;SDS011;9843;48.882;12.592;2022-09-04T12:20:42;1.63;;;0.80;;
19414;SDS011;9843;48.882;12.592;2022-09-04T12:23:41;1.33;;;0.70;;
19414;SDS011;9843;48.882;12.592;2022-09-04T12:26:51;4.78;;;0.93;;
19414;SDS011;9843;48.882;12.592;2022-09-04T12:32:42;1.00;;;0.80;;
19414;SDS011;9843;48.882;12.592;2022-09-04T12:38:30;3.20;;;0.82;;
19414;SDS011;9843;48.882;12.592;2022-09-04T12:41:16;2.90;;;0.43;;
19414;SDS011;9843;48.882;12.592;2022-09-04T12:43:51;2.33;;;0.88;;
19414;SDS011;9843;48.882;12.592;2022-09-04T12:46:34;1.17;;;0.57;;
19414;SDS011;9843;48.882;12.592;2022-09-04T12:49:22;0.98;;;0.60;;
19414;SDS011;9843;48.882;12.592;2022-09-04T12:52:00;0.47;;;0.40;;
19414;SDS011;9843;48.882;12.592;2022-09-04T12:54:35;1.15;;;0.82;;
19414;SDS011;9843;48.882;12.592;2022-09-04T12:57:12;0.85;;;0.65;;
19414;SDS011;9843;48.882;12.592;2022-09-04T12:59:54;0.82;;;0.35;;
19414;SDS011;9843;48.882;12.592;2022-09-04T13:02:33;3.30;;;0.60;;
19414;SDS011;9843;48.882;12.592;2022-09-04T13:05:23;0.93;;;0.70;;
19414;SDS011;9843;48.882;12.592;2022-09-04T13:08:09;1.38;;;0.80;;
19414;SDS011;9843;48.882;12.592;2022-09-04T13:10:45;0.65;;;0.57;;
19414;SDS011;9843;48.882;12.592;2022-09-04T13:13:23;2.25;;;0.57;;
19414;SDS011;9843;48.882;12.592;2022-09-04T13:15:59;1.50;;;0.95;;
19414;SDS011;9843;48.882;12.592;2022-09-04T13:18:37;1.10;;;0.57;;
19414;SDS011;9843;48.882;12.592;2022-09-04T13:21:17;1.83;;;0.75;;
19414;SDS011;9843;48.882;12.592;2022-09-04T13:23:59;0.63;;;0.40;;
19414;SDS011;9843;48.882;12.592;2022-09-04T13:26:43;1.60;;;0.80;;
19414;SDS011;9843;48.882;12.592;2022-09-04T13:29:21;0.50;;;0.50;;
19414;SDS011;9843;48.882;12.592;2022-09-04T13:32:06;0.88;;;0.80;;
19414;SDS011;9843;48.882;12.592;2022-09-04T13:35:07;0.50;;;0.45;;
19414;SDS011;9843;48.882;12.592;2022-09-04T13:37:42;0.50;;;0.50;;
19414;SDS011;9843;48.882;12.592;2022-09-04T13:40:30;1.05;;;0.77;;
19414;SDS011;9843;48.882;12.592;2022-09-04T13:43:24;0.60;;;0.60;;
19414;SDS011;9843;48.882;12.592;2022-09-04T13:46:05;1.27;;;0.57;;
19414;SDS011;9843;48.882;12.592;2022-09-04T13:48:35;1.10;;;0.40;;
19414;SDS011;9843;48.882;12.592;2022-09-04T13:51:10;1.17;;;0.60;;
19414;SDS011;9843;48.882;12.592;2022-09-04T13:53:52;0.93;;;0.57;;
19414;SDS011;9843;48.882;12.592;2022-09-04T13:56:27;0.82;;;0.73;;
19414;SDS011;9843;48.882;12.592;2022-09-04T13:58:56;0.82;;;0.52;;
19414;SDS011;9843;48.882;12.592;2022-09-04T14:01:32;0.68;;;0.50;;
19414;SDS011;9843;48.882;12.592;2022-09-04T14:04:04;0.40;;;0.40;;
19414;SDS011;9843;48.882;12.592;2022-09-04T14:06:36;1.55;;;0.40;;
19414;SDS011;9843;48.882;12.592;2022-09-04T14:09:04;0.50;;;0.50;;
19414;SDS011;9843;48.882;12.592;2022-09-04T14:11:36;1.35;;;0.70;;
19414;SDS011;9843;48.882;12.592;2022-09-04T14:14:25;1.75;;;0.70;;
19414;SDS011;9843;48.882;12.592;2022-09-04T14:17:09;0.52;;;0.45;;
19414;SDS011;9843;48.882;12.592;2022-09-04T14:19:40;3.38;;;0.60;;
19414;SDS011;9843;48.882;12.592;2022-09-04T14:22:18;0.73;;;0.60;;
19414;SDS011;9843;48.882;12.592;2022-09-04T14:24:54;2.30;;;0.50;;
19414;SDS011;9843;48.882;12.592;2022-09-04T14:27:31;2.83;;;0.40;;
19414;SDS011;9843;48.882;12.592;2022-09-04T14:30:04;0.60;;;0.50;;
19414;SDS011;9843;48.882;12.592;2022-09-04T14:32:38;1.23;;;0.95;;
19414;SDS011;9843;48.882;12.592;2022-09-04T14:35:20;0.70;;;0.40;;
19414;SDS011;9843;48.882;12.592;2022-09-04T14:40:51;1.00;;;0.95;;
19414;SDS011;9843;48.882;12.592;2022-09-04T14:43:26;0.75;;;0.50;;
19414;SDS011;9843;48.882;12.592;2022-09-04T14:46:00;0.85;;;0.73;;
19414;SDS011;9843;48.882;12.592;2022-09-04T14:48:36;0.80;;;0.80;;
19414;SDS011;9843;48.882;12.592;2022-09-04T14:51:10;0.70;;;0.70;;
19414;SDS011;9843;48.882;12.592;2022-09-04T14:53:45;6.53;;;4.63;;
19414;SDS011;9843;48.882;12.592;2022-09-04T14:56:16;2.70;;;0.98;;
19414;SDS011;9843;48.882;12.592;2022-09-04T14:58:51;4.63;;;1.30;;
19414;SDS011;9843;48.882;12.592;2022-09-04T15:01:25;1.05;;;0.88;;
19414;SDS011;9843;48.882;12.592;2022-09-04T15:03:54;0.90;;;0.68;;
19414;SDS011;9843;48.882;12.592;2022-09-04T15:06:25;2.00;;;1.05;;
19414;SDS011;9843;48.882;12.592;2022-09-04T15:09:02;4.20;;;0.98;;
19414;SDS011;9843;48.882;12.592;2022-09-04T15:11:43;1.10;;;1.00;;
19414;SDS011;9843;48.882;12.592;2022-09-04T15:14:15;0.93;;;0.90;;
19414;SDS011;9843;48.882;12.592;2022-09-04T15:16:48;2.53;;;0.73;;
19414;SDS011;9843;48.882;12.592;2022-09-04T15:19:25;0.82;;;0.82;;
19414;SDS011;9843;48.882;12.592;2022-09-04T15:22:02;1.52;;;0.85;;
19414;SDS011;9843;48.882;12.592;2022-09-04T15:24:35;3.03;;;0.60;;
19414;SDS011;9843;48.882;12.592;2022-09-04T15:27:14;1.33;;;0.98;;
19414;SDS011;9843;48.882;12.592;2022-09-04T15:29:53;7.00;;;1.05;;
19414;SDS011;9843;48.882;12.592;2022-09-04T15:32:27;1.80;;;1.00;;
19414;SDS011;9843;48.882;12.592;2022-09-04T15:37:50;3.03;;;0.95;;
19414;SDS011;9843;48.882;12.592;2022-09-04T15:40:32;0.98;;;0.98;;
19414;SDS011;9843;48.882;12.592;2022-09-04T15:43:05;2.50;;;0.93;;
19414;SDS011;9843;48.882;12.592;2022-09-04T15:45:41;0.88;;;0.75;;
19414;SDS011;9843;48.882;12.592;2022-09-04T15:48:22;2.70;;;0.70;;
19414;SDS011;9843;48.882;12.592;2022-09-04T15:50:56;1.23;;;0.70;;
19414;SDS011;9843;48.882;12.592;2022-09-04T15:53:36;2.10;;;1.10;;
19414;SDS011;9843;48.882;12.592;2022-09-04T15:58:56;3.42;;;0.90;;
19414;SDS011;9843;48.882;12.592;2022-09-04T16:01:30;3.47;;;0.95;;
19414;SDS011;9843;48.882;12.592;2022-09-04T16:04:09;1.80;;;0.90;;
19414;SDS011;9843;48.882;12.592;2022-09-04T16:06:44;0.70;;;0.65;;
19414;SDS011;9843;48.882;12.592;2022-09-04T16:09:19;1.13;;;0.95;;
19414;SDS011;9843;48.882;12.592;2022-09-04T16:11:58;1.15;;;1.05;;
19414;SDS011;9843;48.882;12.592;2022-09-04T16:14:30;1.50;;;0.90;;
19414;SDS011;9843;48.882;12.592;2022-09-04T16:17:04;0.90;;;0.90;;
19414;SDS011;9843;48.882;12.592;2022-09-04T16:19:42;1.55;;;1.27;;
19414;SDS011;9843;48.882;12.592;2022-09-04T16:22:20;1.75;;;1.35;;
19414;SDS011;9843;48.882;12.592;2022-09-04T16:24:55;9.57;;;1.65;;
19414;SDS011;9843;48.882;12.592;2022-09-04T16:27:36;1.40;;;1.30;;
19414;SDS011;9843;48.882;12.592;2022-09-04T16:30:09;1.20;;;1.10;;
19414;SDS011;9843;48.882;12.592;2022-09-04T16:32:54;3.67;;;1.88;;
19414;SDS011;9843;48.882;12.592;2022-09-04T16:35:21;2.10;;;1.13;;
19414;SDS011;9843;48.882;12.592;2022-09-04T16:37:50;1.67;;;1.17;;
19414;SDS011;9843;48.882;12.592;2022-09-04T16:40:23;1.83;;;1.00;;
19414;SDS011;9843;48.882;12.592;2022-09-04T16:42:56;1.27;;;1.02;;
19414;SDS011;9843;48.882;12.592;2022-09-04T16:45:27;0.97;;;0.97;;
19414;SDS011;9843;48.882;12.592;2022-09-04T16:48:00;1.27;;;1.17;;
19414;SDS011;9843;48.882;12.592;2022-09-04T16:50:32;1.17;;;0.98;;
19414;SDS011;9843;48.882;12.592;2022-09-04T16:53:08;2.67;;;1.40;;
19414;SDS011;9843;48.882;12.592;2022-09-04T16:55:39;1.37;;;1.27;;
19414;SDS011;9843;48.882;12.592;2022-09-04T16:58:26;1.20;;;1.10;;
19414;SDS011;9843;48.882;12.592;2022-09-04T17:01:11;1.50;;;1.17;;
19414;SDS011;9843;48.882;12.592;2022-09-04T17:03:45;1.23;;;1.13;;
19414;SDS011;9843;48.882;12.592;2022-09-04T17:06:21;0.83;;;0.83;;
19414;SDS011;9843;48.882;12.592;2022-09-04T17:08:56;1.15;;;0.88;;
19414;SDS011;9843;48.882;12.592;2022-09-04T17:11:32;0.70;;;0.70;;
19414;SDS011;9843;48.882;12.592;2022-09-04T17:14:08;3.10;;;1.73;;
19414;SDS011;9843;48.882;12.592;2022-09-04T17:16:47;1.73;;;1.57;;
19414;SDS011;9843;48.882;12.592;2022-09-04T17:19:17;1.20;;;1.10;;
19414;SDS011;9843;48.882;12.592;2022-09-04T17:21:55;0.80;;;0.80;;
19414;SDS011;9843;48.882;12.592;2022-09-04T17:24:50;1.00;;;0.90;;
19414;SDS011;9843;48.882;12.592;2022-09-04T17:27:21;1.67;;;1.20;;
19414;SDS011;9843;48.882;12.592;2022-09-04T17:29:53;1.17;;;0.80;;
19414;SDS011;9843;48.882;12.592;2022-09-04T17:32:26;1.10;;;1.00;;
19414;SDS011;9843;48.882;12.592;2022-09-04T17:34:56;1.20;;;1.10;;
19414;SDS011;9843;48.882;12.592;2022-09-04T17:37:28;1.53;;;1.40;;
19414;SDS011;9843;48.882;12.592;2022-09-04T17:40:01;2.00;;;1.63;;
19414;SDS011;9843;48.882;12.592;2022-09-04T17:42:35;2.10;;;1.40;;
19414;SDS011;9843;48.882;12.592;2022-09-04T17:45:15;2.40;;;2.20;;
19414;SDS011;9843;48.882;12.592;2022-09-04T17:47:46;1.50;;;1.40;;
19414;SDS011;9843;48.882;12.592;2022-09-04T17:50:24;2.33;;;1.47;;
19414;SDS011;9843;48.882;12.592;2022-09-04T17:52:53;1.40;;;1.20;;
19414;SDS011;9843;48.882;12.592;2022-09-04T17:55:24;1.20;;;1.10;;
19414;SDS011;9843;48.882;12.592;2022-09-04T17:57:55;4.10;;;1.40;;
19414;SDS011;9843;48.882;12.592;2022-09-04T18:00:28;2.53;;;1.40;;
19414;SDS011;9843;48.882;12.592;2022-09-04T18:02:59;2.53;;;1.70;;
19414;SDS011;9843;48.882;12.592;2022-09-04T18:05:33;1.60;;;1.50;;
19414;SDS011;9843;48.882;12.592;2022-09-04T18:08:03;3.80;;;1.83;;
19414;SDS011;9843;48.882;12.592;2022-09-04T18:10:37;3.23;;;1.83;;
19414;SDS011;9843;48.882;12.592;2022-09-04T18:13:14;1.30;;;1.20;;
19414;SDS011;9843;48.882;12.592;2022-09-04T18:15:47;2.77;;;2.23;;
19414;SDS011;9843;48.882;12.592;2022-09-04T18:18:21;1.80;;;1.70;;
19414;SDS011;9843;48.882;12.592;2022-09-04T18:20:54;4.93;;;2.27;;
19414;SDS011;9843;48.882;12.592;2022-09-04T18:26:15;1.87;;;1.60;;
19414;SDS011;9843;48.882;12.592;2022-09-04T18:28:56;2.30;;;1.83;;
19414;SDS011;9843;48.882;12.592;2022-09-04T18:31:30;1.40;;;1.30;;
19414;SDS011;9843;48.882;12.592;2022-09-04T18:34:12;1.50;;;1.40;;